ENSDENAL

Guest
Details From ENSD - Sandane
To ENAL - Alesund lufthavn - Vigra
Flight Number -
Tags generated
Created
Modified
Stats Distance 45 nm / 84 km
Max Altitude 400 ft / 122 m
Waypoints 3
Social Downloads 0
Likes 0
Share VATSIM

Download

Looking for another format? Having issues loading an existing format? Contact us
Advertisement - Login to hide

Notes

Basic altitude profile: - Ascent Rate: 2500ft/min - Ascent Speed: 250kts - Cruise Altitude: 120000ft - Cruise Speed: 420kts - Descent Rate: 1500ft/min - Descent Speed: 250kts Options: - Use NATs: yes - Use PACOTS: yes - Use low airways: yes - Use high airways: yes

Route

ENSD VIA ENAL

ID Type Via Altitude Latitude Longitude Leg Dist Tot Dist Heading (true) Name
O ENSD APT - 0 ft / 0 m 61.83027˚ 6.10949˚ - 0 nm - Sandane
VIA VOR - 400 ft / 122 m 62.55102˚ 6.03911˚ 43 nm 43 nm 357° / 357° -
O ENAL APT - 0 ft / 0 m 62.56037˚ 6.11016˚ 2 nm 45 nm 74° / 74° Alesund lufthavn - Vigra

Altitude Profile

Advertisement - Login to hide

ENSD

Details ICAO ENSD (SDN)
Name Sandane
Region Norway
Timezone Europe/Oslo (UTC+1.0)
Stats Elevation 177 ft / 54 m (AMSL)
Location 61.830269° 6.109493°
Runways 1
Magnetic Variation 1.183° E

METAR

ENSD 151420Z 15006KT 9999 FEW008 BKN048 M03/M05 Q0996 RMK WIND 1138FT 04003KT

Decode

TAF

Not found

Departure Runways

ID Width Length Bearing (true) Bearing (mag) Surface Threshold Offset Overrun Length
08 98 ft / 30 m 2,759 ft / 841 m 84.29° 83.11° Asphalt 0 ft / 0 m 0 ft / 0 m
26 98 ft / 30 m 2,759 ft / 841 m 264.31° 263.13° Asphalt 0 ft / 0 m 0 ft / 0 m

ENAL

Details ICAO ENAL (AES)
Name Alesund lufthavn - Vigra
Region Norway
Timezone Europe/Oslo (UTC+1.0)
Stats Elevation 69 ft / 21 m (AMSL)
Location 62.560371° 6.110165°
Runways 1
Magnetic Variation 1.162° E

METAR

ENAL 151350Z 17007KT 9999 FEW005 SCT007 BKN040 M00/M00 Q0995

Decode

TAF

Not found

Destination Runways

ID Width Length Bearing (true) Bearing (mag) Surface Threshold Offset Overrun Length
07 148 ft / 45 m 7,563 ft / 2,305 m 64.61° 63.45° Asphalt 492 ft / 150 m 0 ft / 0 m
25 148 ft / 45 m 7,563 ft / 2,305 m 244.65° 243.49° Asphalt 758 ft / 231 m 0 ft / 0 m

Approach Navaids

Runway Type Ident Frequency Range Bearing (true) Bearing (mag) Slope Elevation
25 Localiser VGR 111.95 MHz 18 nm / 33 km 244.61° 243.45° - 72 ft / 22 m (AMSL)
25 Glidescope VGR 111.95 MHz 10 nm / 19 km 244.61° 243.45° 3.00° 18 ft / 5 m (AMSL)